This is the latest recevied weather packets stored in our database for station/object WX2P-13. If no packets are shown the sender has not sent any weather packets the latest 10 day(s).
| Time | Temp. | Humidity | Pressure | Rain* | Wind** | Luminosity | Snow |
|---|---|---|---|---|---|---|---|
| 1777656913 | 30.56° C | 62% | 1012.8 hPa | 0 mm | - | 581 W/m² | - |
| 1777656001 | 30° C | 63% | 1013.1 hPa | 0 mm | - | 756 W/m² | - |
| 1777654788 | 29.44° C | 64% | 1013.4 hPa | 0 mm | - | 708 W/m² | - |
| 1777654183 | 30° C | 61% | 1013.2 hPa | 0 mm | - | 767 W/m² | - |
| 1777653881 | 28.89° C | 65% | 1013.2 hPa | 0 mm | - | 756 W/m² | - |
| 1777653577 | 30° C | 63% | 1013.3 hPa | 0 mm | - | 696 W/m² | - |
| 1777653273 | 30° C | 63% | 1013.5 hPa | 0 mm | - | 757 W/m² | - |
| 1777652970 | 29.44° C | 64% | 1013.5 hPa | 0 mm | - | 740 W/m² | - |
| 1777652666 | 29.44° C | 65% | 1013.4 hPa | 0 mm | - | 733 W/m² | - |
| 1777652060 | 28.89° C | 65% | 1013.6 hPa | 0 mm | - | 733 W/m² | - |
| 1777651757 | 29.44° C | 64% | 1013.6 hPa | 0 mm | - | 751 W/m² | - |
| 1777649939 | 29.44° C | 69% | 1013.5 hPa | 0 mm | - | 717 W/m² | - |
| 1777649636 | 28.33° C | 72% | 1013.7 hPa | 0 mm | - | 737 W/m² | - |
| 1777649332 | 28.33° C | 72% | 1013.7 hPa | 0 mm | - | 765 W/m² | - |
| 1777649030 | 28.89° C | 71% | 1013.6 hPa | 0 mm | - | 760 W/m² | - |
| 1777648727 | 27.78° C | 73% | 1013.8 hPa | 0 mm | - | 778 W/m² | - |
| 1777648423 | 27.78° C | 72% | 1013.7 hPa | 0 mm | - | 156 W/m² | - |
| 1777648119 | 28.33° C | 73% | 1013.8 hPa | 0 mm | - | 826 W/m² | - |
| 1777647816 | 28.89° C | 72% | 1013.5 hPa | 0 mm | - | 301 W/m² | - |
| 1777647209 | 27.22° C | 74% | 1013.4 hPa | 0 mm | - | 367 W/m² | - |
| 1777646906 | 28.33° C | 73% | 1013.4 hPa | 0 mm | - | 856 W/m² | - |
| 1777646298 | 27.78° C | 74% | 1013.3 hPa | 0 mm | - | 804 W/m² | - |
| 1777645995 | 27.78° C | 75% | 1013.1 hPa | 0 mm | - | 858 W/m² | - |
| 1777645692 | 27.78° C | 75% | 1013.5 hPa | 0 mm | - | 717 W/m² | - |
| 1777645388 | 28.89° C | 72% | 1013.5 hPa | 0 mm | - | 630 W/m² | - |
* Rain latest hour (hover to see other rain measurements)
** Current wind speed in m/s (hover to see current wind gust speed)